首页
METAR-TAF:

METAR-TAF

机场 :

汉堡机场

汉堡, 德国

纬度: 53-38N, 经度: 010-00E, 海拔: 16米

当前天气观测

该预报发布于43分钟前的09:20 UTC
风速6节,风向南转南东,在东转东南之间变化
温度 6°C
湿度 93%
气压 1009 hPa
能見度: 9000

METAR: EDDH 220920Z 15006KT 120V180 9000 NSC 06/05 Q1009 NOSIG

时间: 11:03 (10:03 UTC)

预报

该预报发布于5小时和3分钟前的05:00 UTC
预报有效从22日的 06点(UTC)到 23日的 12点(UTC)
风速6节,风向
能见度10公里或以上
少量云层高于1500英尺
几率 30% :
短暂存在
从 22日的 06点(UTC)到 22日的 08点(UTC)
能見度: 4000
多云层高于500英尺
轻雾
成为
从 22日的 17点(UTC)到 22日的 20点(UTC)
风速10节,风向东转东南
多云层高于800英尺
短暂存在
从 22日的 18点(UTC)到 23日的 06点(UTC)
能見度: 4000
轻雾
成为
从 23日的 10点(UTC)到 23日的 12点(UTC)
多云层高于1200英尺

TAF: EDDH 220500Z 2206/2312 17006KT 9999 FEW015 PROB30 TEMPO 2206/2208 4000 BR BKN005 BECMG 2217/2220 11010KT BKN008 TEMPO 2218/2306 4000 BR BECMG 2310/2312 BKN012

超过4000个机场的气象观测和天气预报(METAR&TAF报告)。

可查询的气象台以黄色和红色小点在地图上表示。

将鼠标移到小点上方,可查看气象台名称。

然后点击查看天气观测和预报。

如需切换地图:点击带黑十字的绿色按钮放大地图;点击带横线的绿色按钮缩小地图;或者点击绿色箭头查看邻近地区的地图。


METAR-TAF: